Time;durP1;ratioP1;P1;durP2;ratioP2;P2;SDS_P1;SDS_P2;PMS_P1;PMS_P2;Temp;Humidity;BMP_temperature;BMP_pressure;BME280_temperature;BME280_humidity;BME280_pressure;Samples;Min_cycle;Max_cycle;Signal;HPM_P1;HPM_P2
2022/03/27 00:01:44;;;;;;;25.95;14.55;;;;;;;8.42;67.74;101715.25;5012023;28;20029;-71
2022/03/27 00:04:09;;;;;;;24.70;13.98;;;;;;;8.37;67.40;101717.75;5014635;28;20041;-70
2022/03/27 00:06:36;;;;;;;27.48;15.15;;;;;;;8.28;67.19;101712.59;5032767;28;20033;-70
2022/03/27 00:09:02;;;;;;;27.63;14.70;;;;;;;8.25;68.54;101704.94;5014815;28;20087;-70
2022/03/27 00:11:29;;;;;;;25.85;14.85;;;;;;;8.22;68.41;101712.28;5015153;28;20120;-70
2022/03/27 00:13:58;;;;;;;28.00;15.75;;;;;;;8.19;68.42;101715.16;5032665;28;20045;-70
2022/03/27 00:16:25;;;;;;;22.40;13.38;;;;;;;8.14;67.62;101727.00;5014635;28;20029;-70
2022/03/27 00:18:51;;;;;;;26.92;13.05;;;;;;;8.06;67.58;101716.97;4994567;28;20499;-70
2022/03/27 00:21:21;;;;;;;25.55;12.65;;;;;;;8.09;66.76;101724.66;5011550;28;20052;-69
2022/03/27 00:23:48;;;;;;;23.88;12.48;;;;;;;8.07;65.82;101730.75;5011448;28;20447;-69
2022/03/27 00:26:16;;;;;;;23.23;12.68;;;;;;;8.05;64.47;101733.19;5011346;28;20061;-71
2022/03/27 00:28:43;;;;;;;21.15;10.25;;;;;;;8.03;63.57;101730.00;5011114;28;20041;-70
2022/03/27 00:31:13;;;;;;;19.95;9.65;;;;;;;7.97;62.87;101726.03;4994768;28;20087;-70
2022/03/27 00:33:42;;;;;;;22.67;9.65;;;;;;;7.91;61.89;101735.41;5011478;28;20466;-70
2022/03/27 00:36:10;;;;;;;17.33;10.02;;;;;;;7.82;60.92;101733.13;4994989;28;20033;-70
2022/03/27 00:38:37;;;;;;;15.70;8.48;;;;;;;7.76;59.50;101735.63;4995025;28;20033;-70
2022/03/27 00:41:11;;;;;;;13.80;6.75;;;;;;;7.71;57.36;101741.75;5013482;28;20140;-71
2022/03/27 00:43:37;;;;;;;10.73;5.82;;;;;;;7.70;55.79;101742.97;5014198;28;20030;-70
2022/03/27 00:46:04;;;;;;;10.73;5.93;;;;;;;7.68;53.45;101736.94;5016009;28;20088;-71
2022/03/27 00:48:29;;;;;;;8.30;4.53;;;;;;;7.63;51.98;101733.75;5015792;28;20442;-70
2022/03/27 00:50:56;;;;;;;7.97;4.53;;;;;;;7.59;51.25;101750.81;5015722;28;20467;-71
2022/03/27 00:53:22;;;;;;;10.10;4.18;;;;;;;7.55;50.69;101746.44;5015733;28;20467;-70
2022/03/27 00:55:51;;;;;;;5.68;3.58;;;;;;;7.51;50.17;101742.81;5016028;28;20109;-71
2022/03/27 00:58:18;;;;;;;7.65;3.45;;;;;;;7.49;50.15;101746.09;5015441;28;20479;-69
2022/03/27 01:00:51;;;;;;;6.97;3.25;;;;;;;7.48;48.85;101758.66;5014181;28;20033;-70
2022/03/27 01:03:24;;;;;;;10.13;3.63;;;;;;;7.41;48.36;101755.88;5014349;28;20034;-70
2022/03/27 01:05:59;;;;;;;6.63;3.38;;;;;;;7.42;47.29;101756.69;5015774;28;20053;-71
2022/03/27 01:11:21;;;;;;;5.95;2.75;;;;;;;7.34;46.31;101759.63;5015587;28;20161;-69
2022/03/27 01:13:56;;;;;;;7.18;2.90;;;;;;;7.29;46.20;101756.44;5030573;28;20050;-71
2022/03/27 01:16:45;;;;;;;7.40;2.85;;;;;;;7.25;45.71;101761.34;5015403;28;20030;-70
2022/03/27 01:19:14;;;;;;;8.38;2.83;;;;;;;7.18;45.99;101761.41;5026439;28;20038;-71
2022/03/27 01:21:49;;;;;;;7.65;3.00;;;;;;;7.10;45.89;101757.84;5034140;28;20041;-72
2022/03/27 01:24:23;;;;;;;8.05;3.08;;;;;;;7.05;46.32;101760.31;5035350;28;20029;-70
2022/03/27 01:26:50;;;;;;;7.03;3.17;;;;;;;6.98;45.66;101760.38;5035003;28;20037;-70
2022/03/27 01:29:18;;;;;;;6.45;3.13;;;;;;;6.91;45.37;101767.69;5035191;28;20112;-71
2022/03/27 01:31:53;;;;;;;6.70;2.65;;;;;;;6.81;45.66;101768.59;5017329;28;20087;-70
2022/03/27 01:34:20;;;;;;;6.32;3.08;;;;;;;6.63;44.97;101755.81;5034968;28;20467;-70
2022/03/27 01:36:46;;;;;;;8.43;2.90;;;;;;;6.62;44.23;101759.84;5034972;28;20033;-70
2022/03/27 01:39:27;;;;;;;5.55;2.10;;;;;;;6.59;44.25;101763.53;5034632;28;20083;-72
2022/03/27 01:41:55;;;;;;;4.25;2.00;;;;;;;6.33;44.23;101745.94;5016804;28;20355;-71
2022/03/27 01:44:21;;;;;;;7.53;2.70;;;;;;;6.38;44.54;101767.31;5034065;28;20041;-71
2022/03/27 01:46:48;;;;;;;5.00;1.70;;;;;;;6.31;44.82;101775.88;5034621;28;20033;-70
2022/03/27 01:49:15;;;;;;;5.00;2.47;;;;;;;6.03;44.49;101745.69;5034568;28;20123;-70
2022/03/27 01:51:42;;;;;;;4.47;2.53;;;;;;;6.16;44.99;101774.34;5050108;28;20111;-69
2022/03/27 01:54:10;;;;;;;3.83;2.63;;;;;;;6.10;44.60;101775.97;5049391;28;20479;-70
2022/03/27 01:56:40;;;;;;;4.93;2.33;;;;;;;6.04;44.95;101784.91;5049670;28;20037;-70
2022/03/27 01:59:08;;;;;;;6.95;2.83;;;;;;;6.03;44.44;101777.63;5048678;28;20048;-72
2022/03/27 02:01:35;;;;;;;8.10;2.53;;;;;;;6.00;45.74;101772.81;5047909;28;20350;-70
2022/03/27 02:04:00;;;;;;;5.75;2.17;;;;;;;6.01;45.20;101771.59;5031375;28;20079;-71
2022/03/27 02:06:26;;;;;;;9.07;1.95;;;;;;;5.99;45.56;101770.38;5049082;28;20060;-72
2022/03/27 02:08:51;;;;;;;7.60;2.78;;;;;;;5.93;44.86;101767.16;5034056;28;20025;-70
2022/03/27 02:11:20;;;;;;;8.52;2.72;;;;;;;5.85;45.81;101768.41;5016056;28;20045;-70
2022/03/27 02:13:47;;;;;;;7.43;3.08;;;;;;;5.63;45.17;101750.72;5049216;28;20037;-70
2022/03/27 02:16:13;;;;;;;8.27;3.17;;;;;;;5.70;45.58;101780.16;5032713;28;20498;-70
2022/03/27 02:18:41;;;;;;;5.22;2.70;;;;;;;5.63;46.65;101778.97;5033512;28;20052;-70
2022/03/27 02:21:08;;;;;;;5.13;2.53;;;;;;;5.57;45.86;101777.00;5033760;28;20029;-72
2022/03/27 02:23:36;;;;;;;5.40;3.08;;;;;;;5.50;46.57;101777.00;5032351;28;20095;-71
2022/03/27 02:26:01;;;;;;;7.72;3.50;;;;;;;5.40;46.62;101778.66;5032835;28;20498;-70
2022/03/27 02:28:27;;;;;;;10.75;3.55;;;;;;;5.37;47.33;101784.31;5033908;28;20045;-69
2022/03/27 02:30:53;;;;;;;7.65;3.47;;;;;;;5.35;47.02;101784.72;5048478;28;20087;-70
2022/03/27 02:33:18;;;;;;;9.05;4.07;;;;;;;5.31;47.26;101785.94;5032443;28;20038;-71
2022/03/27 02:35:45;;;;;;;11.38;4.10;;;;;;;5.27;47.62;101793.63;5016027;28;20037;-69
2022/03/27 02:38:12;;;;;;;9.85;4.70;;;;;;;5.25;47.63;101785.53;5032101;28;20037;-72
2022/03/27 02:40:46;;;;;;;9.55;4.10;;;;;;;5.17;48.50;101787.56;5015273;28;20084;-70
2022/03/27 02:43:13;;;;;;;10.38;4.22;;;;;;;5.11;48.95;101783.53;5033899;28;20467;-70
2022/03/27 02:45:39;;;;;;;11.98;4.65;;;;;;;5.06;48.44;101789.59;5033621;28;20520;-70
2022/03/27 02:48:06;;;;;;;10.93;5.15;;;;;;;5.01;49.51;101786.38;5033377;28;20029;-70
2022/03/27 02:50:53;;;;;;;10.75;5.60;;;;;;;4.93;50.06;101781.97;5032054;28;20033;-70
2022/03/27 02:53:20;;;;;;;13.32;5.45;;;;;;;4.87;49.22;101786.38;5033305;28;20044;-71
2022/03/27 02:55:47;;;;;;;11.15;4.72;;;;;;;4.82;49.88;101793.25;5033365;28;20465;-70
2022/03/27 02:58:13;;;;;;;14.63;4.95;;;;;;;4.76;50.05;101794.84;5033273;28;20071;-70
2022/03/27 03:00:41;;;;;;;10.98;5.07;;;;;;;4.71;50.39;101798.06;5033421;28;20026;-71
2022/03/27 03:03:09;;;;;;;10.57;5.30;;;;;;;4.65;50.71;101797.66;5032919;28;20048;-71
2022/03/27 03:05:39;;;;;;;9.82;5.07;;;;;;;4.60;50.59;101805.72;5031718;28;20097;-70
2022/03/27 03:08:06;;;;;;;21.88;10.35;;;;;;;4.54;50.90;101807.34;5033128;28;20385;-70
2022/03/27 03:10:33;;;;;;;25.23;13.05;;;;;;;4.51;51.49;101794.00;5015835;28;20029;-69
2022/03/27 03:13:00;;;;;;;25.80;11.73;;;;;;;4.46;51.08;101800.06;5032898;28;20072;-71
2022/03/27 03:15:28;;;;;;;32.80;15.18;;;;;;;4.38;51.46;101795.63;5015561;28;20116;-71
2022/03/27 03:17:55;;;;;;;25.75;12.68;;;;;;;4.33;51.72;101800.44;5032477;28;20021;-70
2022/03/27 03:20:22;;;;;;;25.13;11.43;;;;;;;4.31;51.62;101807.69;5033083;28;20116;-70
2022/03/27 03:22:50;;;;;;;25.50;12.80;;;;;;;4.28;51.95;101814.13;5033152;28;20021;-70
2022/03/27 03:25:19;;;;;;;27.25;12.85;;;;;;;4.21;51.53;101802.81;5015144;28;20467;-70
2022/03/27 03:27:46;;;;;;;21.33;8.63;;;;;;;4.17;51.98;101808.47;5032910;28;20356;-70
2022/03/27 03:30:12;;;;;;;17.42;10.35;;;;;;;4.12;52.50;101810.84;5033046;28;20474;-70
2022/03/27 03:32:39;;;;;;;23.70;9.52;;;;;;;4.08;52.48;101815.69;5032737;28;20029;-70
2022/03/27 03:35:05;;;;;;;18.65;9.80;;;;;;;4.05;52.92;101819.28;5032150;28;20045;-70
2022/03/27 03:37:39;;;;;;;22.08;11.05;;;;;;;4.00;53.14;101817.66;5033347;28;20029;-70
2022/03/27 03:40:09;;;;;;;23.15;9.30;;;;;;;3.96;53.76;101816.81;5032548;28;20022;-70
2022/03/27 03:42:39;;;;;;;23.00;10.77;;;;;;;3.94;53.75;101824.91;5032829;28;20029;-70
2022/03/27 03:45:05;;;;;;;19.38;9.10;;;;;;;3.89;53.02;101816.81;5014952;28;20029;-69
2022/03/27 03:47:32;;;;;;;15.90;7.68;;;;;;;3.88;54.12;101816.00;5015514;28;20376;-71
2022/03/27 03:49:58;;;;;;;24.30;10.02;;;;;;;3.86;53.98;101817.59;5032754;28;20096;-69
2022/03/27 03:52:24;;;;;;;23.00;11.85;;;;;;;3.75;54.16;101811.91;5032698;28;20103;-70
2022/03/27 03:54:50;;;;;;;17.35;8.20;;;;;;;3.78;53.80;101815.97;5032639;28;20104;-70
2022/03/27 03:57:17;;;;;;;20.63;7.30;;;;;;;3.75;54.32;101825.22;5031612;28;20037;-70
2022/03/27 03:59:44;;;;;;;13.57;7.10;;;;;;;3.72;54.74;101817.53;5029665;28;20041;-71
2022/03/27 04:02:13;;;;;;;19.90;8.73;;;;;;;3.78;54.70;101830.84;5032977;28;20040;-71
2022/03/27 04:04:40;;;;;;;23.08;7.80;;;;;;;3.82;54.68;101831.69;5032686;28;20021;-70
2022/03/27 04:07:06;;;;;;;25.52;10.82;;;;;;;3.89;54.78;101831.72;5032719;28;20022;-70
2022/03/27 04:09:33;;;;;;;20.17;9.20;;;;;;;3.99;54.76;101846.25;5014866;28;20021;-69
2022/03/27 04:11:58;;;;;;;15.82;7.88;;;;;;;4.01;54.95;101833.34;5031929;28;20053;-71
2022/03/27 04:14:25;;;;;;;22.00;8.10;;;;;;;4.14;54.55;101845.09;5015022;28;20053;-70
2022/03/27 04:16:50;;;;;;;14.85;6.80;;;;;;;4.23;54.68;101839.91;5047822;28;20486;-70
2022/03/27 04:19:18;;;;;;;14.25;6.43;;;;;;;4.31;54.76;101853.63;5034473;28;20125;-71
2022/03/27 04:21:46;;;;;;;12.60;5.72;;;;;;;4.34;53.84;101849.97;5018317;28;20055;-70
2022/03/27 04:24:11;;;;;;;15.55;5.70;;;;;;;4.35;53.99;101854.44;5036062;28;20025;-70
2022/03/27 04:26:41;;;;;;;15.88;6.18;;;;;;;4.38;53.82;101857.66;5051450;28;20105;-70
2022/03/27 04:29:10;;;;;;;10.95;5.85;;;;;;;4.36;54.25;101860.88;5036195;28;20052;-69
2022/03/27 04:31:41;;;;;;;12.73;6.75;;;;;;;4.32;54.95;101854.41;5036208;28;20048;-70
2022/03/27 04:34:07;;;;;;;13.70;5.95;;;;;;;4.24;54.69;101852.81;5034314;28;20368;-70
2022/03/27 04:36:33;;;;;;;13.40;6.28;;;;;;;4.13;54.69;101852.75;5051009;28;20433;-70
2022/03/27 04:39:00;;;;;;;19.40;8.05;;;;;;;4.06;54.41;101858.34;5035693;28;20458;-70
2022/03/27 04:41:40;;;;;;;15.32;7.43;;;;;;;3.94;55.52;101855.91;5035879;28;20034;-71
2022/03/27 04:44:06;;;;;;;19.05;7.18;;;;;;;3.86;55.66;101865.50;5036048;28;20029;-70
2022/03/27 04:46:32;;;;;;;12.02;6.80;;;;;;;3.82;55.59;101864.69;5051148;28;20029;-71
2022/03/27 04:48:57;;;;;;;10.50;6.57;;;;;;;3.77;55.85;101865.06;5034291;28;20514;-70
2022/03/27 04:51:23;;;;;;;18.70;7.40;;;;;;;3.70;56.58;101860.19;5034919;28;20483;-72
2022/03/27 04:53:50;;;;;;;14.85;7.63;;;;;;;3.74;56.42;101877.13;5035522;28;20026;-70
2022/03/27 04:56:20;;;;;;;17.30;7.15;;;;;;;3.72;57.14;101873.88;5035666;28;20025;-70
2022/03/27 04:58:46;;;;;;;16.88;8.45;;;;;;;3.71;56.88;101872.25;5051156;28;20099;-70
2022/03/27 05:01:12;;;;;;;22.50;9.10;;;;;;;3.67;57.40;101865.81;5050563;28;20080;-70
2022/03/27 05:03:39;;;;;;;23.65;9.25;;;;;;;3.64;57.04;101866.59;5035677;28;20040;-70
2022/03/27 05:06:11;;;;;;;21.10;9.40;;;;;;;3.73;57.40;101870.69;5017098;28;20060;-71
2022/03/27 05:08:36;;;;;;;17.35;9.05;;;;;;;3.71;56.97;101873.06;5035290;28;20033;-71
2022/03/27 05:11:02;;;;;;;17.05;8.57;;;;;;;3.77;57.30;101882.78;5035174;28;20043;-71
2022/03/27 05:13:29;;;;;;;22.92;11.35;;;;;;;3.57;57.39;101852.47;5035394;28;20037;-71
2022/03/27 05:15:54;;;;;;;22.77;9.57;;;;;;;3.80;57.31;101892.44;5034998;28;20029;-71
2022/03/27 05:18:21;;;;;;;25.13;10.13;;;;;;;3.82;57.62;101896.50;5013894;28;20133;-71
2022/03/27 05:20:48;;;;;;;22.98;9.77;;;;;;;3.86;57.40;101897.31;5015017;28;20056;-70
2022/03/27 05:23:14;;;;;;;18.42;8.40;;;;;;;3.75;56.73;101868.25;5015224;28;20029;-71
2022/03/27 05:25:45;;;;;;;18.88;9.57;;;;;;;3.97;57.01;101899.38;5015560;28;20049;-71
2022/03/27 05:28:12;;;;;;;15.17;8.50;;;;;;;4.04;56.38;101899.44;5014577;28;20064;-69
2022/03/27 05:30:37;;;;;;;18.42;8.20;;;;;;;4.07;56.12;101910.72;5014796;28;20273;-71
2022/03/27 05:33:09;;;;;;;16.70;9.07;;;;;;;4.18;56.47;101910.78;5013658;28;20065;-71
2022/03/27 05:35:36;;;;;;;18.65;9.88;;;;;;;4.24;56.11;101914.84;5015075;28;20054;-70
2022/03/27 05:38:10;;;;;;;18.67;10.27;;;;;;;4.28;55.98;101908.00;5014013;28;20120;-71
2022/03/27 05:40:36;;;;;;;19.50;10.02;;;;;;;4.38;55.51;101914.88;5015047;28;20186;-69
2022/03/27 05:43:02;;;;;;;21.45;10.23;;;;;;;4.27;54.66;101897.91;5015266;28;20105;-70
2022/03/27 05:45:27;;;;;;;17.38;9.00;;;;;;;4.54;54.86;101929.44;5013790;28;20459;-70
2022/03/27 05:47:53;;;;;;;24.05;8.98;;;;;;;4.63;54.69;101921.44;5014593;28;20030;-71
2022/03/27 05:50:27;;;;;;;18.00;7.78;;;;;;;4.72;53.79;101921.84;5013499;28;20026;-70
2022/03/27 05:52:54;;;;;;;18.45;6.75;;;;;;;4.81;53.66;101913.00;5014674;28;20033;-71
2022/03/27 05:55:22;;;;;;;15.27;6.68;;;;;;;4.89;53.39;101908.16;5013395;28;20037;-71
2022/03/27 05:57:47;;;;;;;11.93;6.63;;;;;;;4.94;52.07;101911.41;5013230;28;20038;-70
2022/03/27 06:00:22;;;;;;;9.75;5.15;;;;;;;5.06;50.83;101927.16;4996835;28;20141;-70
2022/03/27 06:02:50;;;;;;;10.25;5.18;;;;;;;5.11;51.03;101919.09;5014655;28;20038;-69
2022/03/27 06:05:31;;;;;;;11.05;6.15;;;;;;;5.28;50.23;101920.28;5014576;28;20030;-71
2022/03/27 06:07:58;;;;;;;9.00;5.15;;;;;;;5.40;49.53;101917.09;5013248;28;20028;-70
2022/03/27 06:10:26;;;;;;;13.98;5.28;;;;;;;5.54;49.30;101922.72;5013183;28;20033;-69
2022/03/27 06:12:52;;;;;;;11.43;4.57;;;;;;;5.72;48.38;101921.91;5014181;28;20117;-70
2022/03/27 06:15:27;;;;;;;9.82;4.32;;;;;;;5.92;47.94;101918.25;5013262;28;20058;-70
2022/03/27 06:17:54;;;;;;;10.77;5.38;;;;;;;6.21;47.92;101916.16;5014407;28;20026;-71
2022/03/27 06:20:25;;;;;;;13.15;4.85;;;;;;;6.47;45.44;101912.00;5046002;28;20042;-70
2022/03/27 06:23:10;;;;;;;12.10;6.07;;;;;;;6.83;45.11;101919.09;5013097;28;20026;-71
2022/03/27 06:25:35;;;;;;;13.27;5.88;;;;;;;8.03;44.21;101919.28;5014194;28;20416;-73
2022/03/27 06:28:09;;;;;;;13.05;5.55;;;;;;;10.42;40.39;101915.13;5046287;28;20029;-70
2022/03/27 06:30:36;;;;;;;14.15;5.40;;;;;;;12.89;35.46;101907.91;5012964;28;20021;-71
2022/03/27 06:33:08;;;;;;;12.73;5.53;;;;;;;15.16;31.70;101891.19;5014182;28;20029;-69
2022/03/27 06:35:35;;;;;;;9.85;4.30;;;;;;;17.05;28.15;101886.00;5014180;28;20053;-69
2022/03/27 06:38:01;;;;;;;7.18;3.40;;;;;;;18.39;26.19;101883.22;5014245;28;20022;-70
2022/03/27 06:40:27;;;;;;;7.57;3.50;;;;;;;19.39;23.74;101890.72;5012142;28;20483;-72
2022/03/27 06:42:53;;;;;;;7.90;3.22;;;;;;;20.42;22.48;101885.31;5014027;28;20033;-70
2022/03/27 06:45:22;;;;;;;11.98;3.88;;;;;;;21.44;20.68;101883.59;5014778;28;20036;-70
2022/03/27 06:47:49;;;;;;;8.90;3.75;;;;;;;21.72;19.58;101895.38;5045042;28;20178;-70
2022/03/27 06:50:15;;;;;;;6.93;2.60;;;;;;;20.42;18.98;101902.69;5013894;28;20144;-70
2022/03/27 06:52:42;;;;;;;8.27;3.08;;;;;;;18.39;20.55;101924.41;5045549;28;20591;-70
2022/03/27 06:55:09;;;;;;;6.10;3.10;;;;;;;18.30;21.64;101920.81;5013658;28;20104;-70
2022/03/27 06:57:36;;;;;;;9.02;3.55;;;;;;;19.23;20.78;101929.63;5013714;28;20022;-71
2022/03/27 07:05:51;;;;;;;8.10;3.83;;;;;;;19.83;19.98;101931.13;5011586;28;20387;-70
2022/03/27 07:08:19;;;;;;;7.70;3.95;;;;;;;21.03;18.99;101919.88;4994149;28;20029;-70
2022/03/27 07:10:48;;;;;;;7.43;3.92;;;;;;;22.35;18.02;101919.16;4995137;28;20069;-72
2022/03/27 07:13:16;;;;;;;7.43;4.03;;;;;;;23.90;16.67;101908.94;4995211;28;20044;-70
2022/03/27 07:15:43;;;;;;;7.95;4.20;;;;;;;24.76;15.07;101914.63;5045428;28;20096;-70
2022/03/27 07:18:11;;;;;;;7.40;3.92;;;;;;;25.77;14.45;101916.16;5046663;28;20095;-69
2022/03/27 07:20:45;;;;;;;9.45;4.03;;;;;;;26.10;14.52;101928.81;5033097;28;20037;-71
2022/03/27 07:23:12;;;;;;;8.50;3.40;;;;;;;26.61;13.50;101918.03;5047866;28;20029;-70
2022/03/27 07:25:41;;;;;;;9.60;3.67;;;;;;;27.42;13.14;101922.34;5048184;28;20041;-70
2022/03/27 07:28:08;;;;;;;5.90;3.22;;;;;;;28.26;12.52;101920.78;5048718;28;20025;-71
2022/03/27 07:30:36;;;;;;;9.63;3.83;;;;;;;28.20;12.28;101928.88;5033080;28;20117;-70
2022/03/27 07:33:03;;;;;;;7.10;3.28;;;;;;;27.71;12.50;101926.38;5048170;28;20021;-71
2022/03/27 07:35:32;;;;;;;7.38;3.22;;;;;;;26.79;12.58;101936.94;5031928;28;20091;-70
2022/03/27 07:37:59;;;;;;;9.45;3.25;;;;;;;25.81;13.05;101933.38;5047795;28;20064;-72
2022/03/27 07:40:25;;;;;;;8.88;3.25;;;;;;;25.29;13.17;101933.59;5034971;28;20037;-71
2022/03/27 07:42:51;;;;;;;7.32;2.80;;;;;;;25.13;13.37;101925.78;5032681;28;20021;-72
2022/03/27 07:45:21;;;;;;;4.03;2.63;;;;;;;24.98;13.30;101928.28;5047900;28;20056;-71
2022/03/27 07:47:49;;;;;;;8.10;3.55;;;;;;;24.31;14.16;101928.66;5032846;28;20109;-71
2022/03/27 07:50:33;;;;;;;4.03;2.40;;;;;;;24.01;14.11;101923.47;5032812;28;20037;-70
2022/03/27 07:53:00;;;;;;;4.40;2.58;;;;;;;23.88;14.24;101929.03;5050748;28;20075;-71
2022/03/27 07:55:33;;;;;;;5.18;2.78;;;;;;;24.51;13.57;101916.66;5052155;28;20049;-71
2022/03/27 07:58:00;;;;;;;6.05;2.53;;;;;;;24.46;13.97;101917.47;5036777;28;20033;-72
2022/03/27 08:00:30;;;;;;;3.42;1.67;;;;;;;23.89;13.35;101904.44;5052033;28;20336;-72
2022/03/27 08:02:57;;;;;;;4.82;2.22;;;;;;;22.87;14.84;101910.06;5051541;28;20022;-70
2022/03/27 08:05:24;;;;;;;6.00;2.17;;;;;;;22.30;15.14;101919.16;5051614;28;20045;-73
2022/03/27 08:07:51;;;;;;;2.55;1.70;;;;;;;22.37;14.74;101909.94;5036626;28;20033;-71
2022/03/27 08:10:17;;;;;;;5.68;2.22;;;;;;;22.56;14.68;101908.13;5039367;28;20386;-71
2022/03/27 08:12:51;;;;;;;4.13;2.10;;;;;;;22.97;14.76;101905.59;5051820;28;20041;-71
2022/03/27 08:15:20;;;;;;;4.63;1.90;;;;;;;23.29;14.63;101911.16;5018753;28;20033;-71
2022/03/27 08:17:46;;;;;;;4.45;2.30;;;;;;;23.73;14.50;101898.69;5036068;28;20029;-72
2022/03/27 08:20:12;;;;;;;13.13;3.35;;;;;;;23.84;14.24;101896.50;5014847;28;20149;-71
2022/03/27 08:22:40;;;;;;;2.72;1.65;;;;;;;23.89;14.65;101889.88;5014955;28;20038;-72
2022/03/27 08:25:06;;;;;;;4.78;2.28;;;;;;;23.92;13.91;101894.66;5016660;28;20383;-72
2022/03/27 08:27:34;;;;;;;3.85;2.00;;;;;;;23.81;14.24;101900.50;5016478;28;20060;-71
2022/03/27 08:30:15;;;;;;;5.57;2.60;;;;;;;23.49;14.63;101902.94;5016202;28;20040;-70
2022/03/27 08:32:41;;;;;;;6.35;2.08;;;;;;;23.15;14.58;101902.16;5016603;28;20029;-71
2022/03/27 08:35:10;;;;;;;6.68;2.30;;;;;;;22.80;15.04;101901.88;5015331;28;20398;-71
2022/03/27 08:37:50;;;;;;;4.13;2.05;;;;;;;22.69;15.44;101898.94;5016312;28;20101;-72
2022/03/27 08:40:25;;;;;;;4.45;1.70;;;;;;;23.00;14.09;101898.72;5016331;28;20095;-72
2022/03/27 08:42:53;;;;;;;5.03;1.85;;;;;;;22.58;14.53;101896.00;5016168;28;20057;-72
2022/03/27 08:45:21;;;;;;;4.93;1.70;;;;;;;21.87;15.76;101910.47;5016380;28;20077;-71
2022/03/27 08:47:51;;;;;;;5.57;2.00;;;;;;;21.81;15.31;101917.56;5016190;28;20108;-71
2022/03/27 08:50:40;;;;;;;4.30;1.88;;;;;;;21.85;14.88;101909.44;5016008;28;20136;-71
2022/03/27 08:53:08;;;;;;;4.00;1.70;;;;;;;21.86;15.20;101905.19;5015890;28;20061;-71
2022/03/27 08:55:57;;;;;;;3.50;2.28;;;;;;;21.84;15.06;101917.34;5015814;28;20076;-71
2022/03/27 08:58:31;;;;;;;8.02;1.70;;;;;;;21.45;15.42;101911.28;5015689;28;20037;-71
2022/03/27 09:00:58;;;;;;;3.35;1.80;;;;;;;21.26;15.48;101900.63;5014505;28;20037;-72
2022/03/27 09:03:24;;;;;;;4.45;2.22;;;;;;;21.08;16.20;101904.63;4997356;28;20046;-72
2022/03/27 09:05:50;;;;;;;3.60;1.60;;;;;;;20.86;15.66;101910.25;5014327;28;20471;-72
2022/03/27 09:08:17;;;;;;;8.05;2.50;;;;;;;20.62;16.43;101910.53;5047531;28;20566;-70
2022/03/27 09:10:42;;;;;;;3.40;1.30;;;;;;;20.31;16.53;101908.34;5014356;28;20073;-71
2022/03/27 09:13:14;;;;;;;2.97;1.77;;;;;;;19.82;16.73;101915.84;5015360;28;20546;-71
2022/03/27 09:15:43;;;;;;;5.28;1.90;;;;;;;19.42;17.35;101907.88;4997799;28;20026;-70
2022/03/27 09:18:12;;;;;;;3.55;1.88;;;;;;;19.06;17.64;101919.09;5014056;28;20091;-72
2022/03/27 09:20:44;;;;;;;4.72;2.05;;;;;;;19.00;18.16;101916.09;5017546;28;20524;-71
2022/03/27 09:23:25;;;;;;;3.08;1.70;;;;;;;18.76;18.42;101915.41;5035330;28;20026;-71
2022/03/27 09:25:59;;;;;;;4.18;2.25;;;;;;;18.80;18.88;101908.13;5035000;28;20037;-72
2022/03/27 09:28:38;;;;;;;4.25;1.75;;;;;;;18.73;18.98;101904.88;5034876;28;20351;-71
2022/03/27 09:31:19;;;;;;;3.25;1.83;;;;;;;18.67;19.25;101892.41;5034894;28;20078;-72
2022/03/27 09:33:56;;;;;;;4.57;1.45;;;;;;;18.50;19.14;101889.19;5035324;28;20108;-71
2022/03/27 09:36:28;;;;;;;3.67;1.38;;;;;;;18.38;19.79;101893.94;5034857;28;20497;-71
2022/03/27 09:39:16;;;;;;;3.60;1.60;;;;;;;18.51;19.50;101887.88;5034854;28;20060;-71
2022/03/27 09:41:48;;;;;;;3.67;1.98;;;;;;;18.31;19.99;101881.97;5017772;28;20479;-71
2022/03/27 09:44:20;;;;;;;6.28;1.52;;;;;;;17.85;20.00;101876.63;5034593;28;20125;-71
2022/03/27 09:47:08;;;;;;;2.67;1.52;;;;;;;17.51;19.25;101880.03;5034528;28;20079;-72
2022/03/27 09:49:37;;;;;;;2.25;1.17;;;;;;;17.42;20.72;101869.31;5034304;28;20025;-71
2022/03/27 09:52:05;;;;;;;4.25;1.50;;;;;;;17.22;20.92;101866.22;5034607;28;20263;-71
2022/03/27 09:54:59;;;;;;;4.22;1.60;;;;;;;16.93;20.69;101866.84;5034811;28;20041;-69
2022/03/27 09:57:39;;;;;;;3.83;1.63;;;;;;;16.90;21.43;101870.69;5027273;28;20042;-71
2022/03/27 10:00:19;;;;;;;3.28;1.48;;;;;;;16.84;20.80;101866.88;5016626;28;20595;-69
2022/03/27 10:02:47;;;;;;;2.58;1.48;;;;;;;16.89;21.56;101862.53;5016582;28;20397;-71
2022/03/27 10:05:14;;;;;;;4.53;1.02;;;;;;;16.93;21.54;101858.19;5049671;28;20045;-71
2022/03/27 10:07:52;;;;;;;2.63;1.30;;;;;;;17.05;21.91;101860.09;5049840;28;20041;-71
2022/03/27 10:10:20;;;;;;;6.03;1.50;;;;;;;17.03;22.25;101859.75;5034049;28;20371;-70
2022/03/27 10:12:52;;;;;;;5.38;1.33;;;;;;;16.95;20.47;101864.28;5034224;28;20044;-71
2022/03/27 10:15:22;;;;;;;6.07;1.45;;;;;;;17.01;22.05;101853.72;5032614;28;20120;-70
2022/03/27 10:18:05;;;;;;;2.15;1.30;;;;;;;17.05;20.32;101857.22;5032646;28;20393;-71
2022/03/27 10:20:37;;;;;;;3.78;1.50;;;;;;;16.94;22.73;101851.16;5012845;28;20077;-70
2022/03/27 10:23:08;;;;;;;6.97;1.98;;;;;;;16.91;23.14;101846.41;5014266;28;20030;-70
2022/03/27 10:25:41;;;;;;;3.40;1.70;;;;;;;16.81;23.11;101859.22;5014279;28;20501;-71
2022/03/27 10:28:07;;;;;;;3.70;1.58;;;;;;;16.67;22.80;101842.66;5012810;28;20049;-71
2022/03/27 10:30:33;;;;;;;4.75;2.00;;;;;;;16.64;23.67;101834.97;5012836;28;20084;-70
2022/03/27 10:33:01;;;;;;;3.65;1.67;;;;;;;16.32;23.36;101839.34;5012824;28;20080;-70
2022/03/27 10:35:37;;;;;;;7.20;2.00;;;;;;;16.02;24.13;101823.88;5014105;28;20032;-71
2022/03/27 10:38:15;;;;;;;3.13;1.65;;;;;;;15.92;25.66;101819.41;5012793;28;20033;-72
2022/03/27 10:40:49;;;;;;;4.43;2.50;;;;;;;15.83;25.18;101799.28;5013676;28;20364;-70
2022/03/27 10:43:34;;;;;;;5.85;2.92;;;;;;;15.75;25.20;101810.28;4996709;28;20408;-71
2022/03/27 10:46:22;;;;;;;4.90;2.38;;;;;;;15.61;25.81;101813.81;5013918;28;20033;-70
2022/03/27 10:48:49;;;;;;;3.97;2.20;;;;;;;15.67;26.10;101806.16;5013914;28;20030;-70
2022/03/27 10:51:38;;;;;;;4.95;2.42;;;;;;;15.77;26.01;101804.88;5012481;28;20045;-72
2022/03/27 10:54:11;;;;;;;5.35;2.45;;;;;;;15.68;25.25;101792.59;5013476;28;20045;-71
2022/03/27 10:56:40;;;;;;;3.22;1.92;;;;;;;15.66;26.26;101786.50;5013846;28;20084;-70
2022/03/27 10:59:12;;;;;;;2.90;2.10;;;;;;;15.61;25.57;101782.19;5013522;28;20029;-71
2022/03/27 11:01:52;;;;;;;4.47;2.13;;;;;;;15.63;26.39;101782.53;5013887;28;20080;-71
2022/03/27 11:04:40;;;;;;;5.10;3.05;;;;;;;15.42;26.04;101780.56;5013560;28;20025;-71
2022/03/27 11:07:15;;;;;;;3.95;2.60;;;;;;;15.38;25.28;101779.94;5013762;28;20026;-70
2022/03/27 11:10:01;;;;;;;3.72;2.35;;;;;;;15.41;26.26;101778.97;5013691;28;20061;-69
2022/03/27 11:12:31;;;;;;;4.57;2.47;;;;;;;15.46;25.26;101767.66;5013144;28;20466;-71
2022/03/27 11:14:59;;;;;;;6.25;2.42;;;;;;;15.22;26.38;101748.63;5013351;28;20394;-71
2022/03/27 11:17:41;;;;;;;3.63;2.10;;;;;;;15.26;25.00;101775.91;5013733;28;20029;-71
2022/03/27 11:20:26;;;;;;;6.28;2.17;;;;;;;15.08;24.67;101770.16;5028566;28;20115;-71
2022/03/27 11:22:55;;;;;;;2.97;1.85;;;;;;;14.94;24.93;101762.94;5033325;28;20051;-69
2022/03/27 11:25:41;;;;;;;5.75;2.78;;;;;;;14.84;24.96;101755.56;5015839;28;20028;-70
2022/03/27 11:28:11;;;;;;;4.43;2.25;;;;;;;14.75;24.39;101751.88;5032798;28;20025;-71
2022/03/27 11:30:55;;;;;;;6.18;2.20;;;;;;;14.71;24.78;101743.41;5048141;28;20037;-71
2022/03/27 11:33:26;;;;;;;3.40;2.30;;;;;;;14.60;25.00;101752.44;5033192;28;20425;-70
2022/03/27 11:36:05;;;;;;;7.35;2.28;;;;;;;14.56;25.07;101743.19;5032712;28;20056;-70
2022/03/27 11:38:52;;;;;;;3.72;2.00;;;;;;;14.48;24.74;101736.16;5032975;28;20031;-71
2022/03/27 11:41:42;;;;;;;5.03;2.13;;;;;;;14.39;25.01;101732.44;5032749;28;20029;-71
2022/03/27 11:44:18;;;;;;;5.07;2.20;;;;;;;14.42;25.57;101731.50;5033036;28;20029;-71
2022/03/27 11:46:51;;;;;;;6.90;2.25;;;;;;;14.65;26.73;101728.88;5033239;28;20477;-68